Las Vegas, Nevada
Traffic Map
Current Weather Conditions
Las Vegas, Nevada
Overcast
Overcast
23°
Feels Like: 23°
Wind Chill: 23° Ceiling: 23000
Heat Index: 23° Visibility: 10mi
Dew Point: -6° Wind: 8mph
Humidity: 14% Direction: 180° (S)
Pressure: 29.76in Gusts: 0mph
Raw Report DataKLAS 180856Z 18007KT 10SM OVC230 23/M06 A2976 RMK AO2 SLP052 T02331061 58005
Traffic Incident Summary
Active as of:
Severity:
Category:
InformationThere was an issue retrieving the traffic information for this location. Please try a different location or try again shortly.
Advertisements
At Last! Intellicast now available for iPhone and Android